sensor_id;sensor_type;location;lat;lon;timestamp;P1;durP1;ratioP1;P2;durP2;ratioP2
64795;SDS011;51229;51.980;6.722;2023-03-23T00:01:05;7.03;;;3.67;;
64795;SDS011;51229;51.980;6.722;2023-03-23T00:03:32;8.73;;;4.28;;
64795;SDS011;51229;51.980;6.722;2023-03-23T00:05:58;7.63;;;3.75;;
64795;SDS011;51229;51.980;6.722;2023-03-23T00:08:35;6.80;;;3.40;;
64795;SDS011;51229;51.980;6.722;2023-03-23T00:11:05;7.47;;;3.70;;
64795;SDS011;51229;51.980;6.722;2023-03-23T00:13:32;6.53;;;3.72;;
64795;SDS011;51229;51.980;6.722;2023-03-23T00:15:58;7.85;;;3.80;;
64795;SDS011;51229;51.980;6.722;2023-03-23T00:18:24;9.35;;;4.18;;
64795;SDS011;51229;51.980;6.722;2023-03-23T00:20:54;7.95;;;3.70;;
64795;SDS011;51229;51.980;6.722;2023-03-23T00:23:22;8.45;;;4.10;;
64795;SDS011;51229;51.980;6.722;2023-03-23T00:25:53;8.88;;;3.97;;
64795;SDS011;51229;51.980;6.722;2023-03-23T00:28:24;7.35;;;3.45;;
64795;SDS011;51229;51.980;6.722;2023-03-23T00:31:02;7.65;;;3.20;;
64795;SDS011;51229;51.980;6.722;2023-03-23T00:33:31;7.15;;;3.40;;
64795;SDS011;51229;51.980;6.722;2023-03-23T00:36:03;6.93;;;3.63;;
64795;SDS011;51229;51.980;6.722;2023-03-23T00:38:29;6.57;;;3.60;;
64795;SDS011;51229;51.980;6.722;2023-03-23T00:40:56;7.60;;;3.88;;
64795;SDS011;51229;51.980;6.722;2023-03-23T00:43:22;9.35;;;3.75;;
64795;SDS011;51229;51.980;6.722;2023-03-23T00:45:54;6.65;;;3.40;;
64795;SDS011;51229;51.980;6.722;2023-03-23T00:48:22;5.28;;;3.58;;
64795;SDS011;51229;51.980;6.722;2023-03-23T00:50:48;8.77;;;3.72;;
64795;SDS011;51229;51.980;6.722;2023-03-23T00:53:15;5.32;;;3.08;;
64795;SDS011;51229;51.980;6.722;2023-03-23T00:55:43;6.65;;;3.40;;
64795;SDS011;51229;51.980;6.722;2023-03-23T00:58:10;6.70;;;3.13;;
64795;SDS011;51229;51.980;6.722;2023-03-23T01:00:37;5.72;;;2.95;;
64795;SDS011;51229;51.980;6.722;2023-03-23T01:03:04;8.02;;;3.65;;
64795;SDS011;51229;51.980;6.722;2023-03-23T01:05:33;5.95;;;3.47;;
64795;SDS011;51229;51.980;6.722;2023-03-23T01:08:03;6.03;;;2.97;;
64795;SDS011;51229;51.980;6.722;2023-03-23T01:10:30;8.55;;;3.42;;
64795;SDS011;51229;51.980;6.722;2023-03-23T01:12:58;8.82;;;4.13;;
64795;SDS011;51229;51.980;6.722;2023-03-23T01:15:25;5.40;;;3.40;;
64795;SDS011;51229;51.980;6.722;2023-03-23T01:17:51;7.20;;;3.40;;
64795;SDS011;51229;51.980;6.722;2023-03-23T01:20:17;7.00;;;3.00;;
64795;SDS011;51229;51.980;6.722;2023-03-23T01:22:43;5.25;;;3.50;;
64795;SDS011;51229;51.980;6.722;2023-03-23T01:25:10;5.18;;;3.30;;
64795;SDS011;51229;51.980;6.722;2023-03-23T01:27:37;6.07;;;3.17;;
64795;SDS011;51229;51.980;6.722;2023-03-23T01:30:03;5.65;;;3.45;;
64795;SDS011;51229;51.980;6.722;2023-03-23T01:32:30;5.63;;;3.28;;
64795;SDS011;51229;51.980;6.722;2023-03-23T01:34:56;6.28;;;3.30;;
64795;SDS011;51229;51.980;6.722;2023-03-23T01:37:22;6.65;;;3.67;;
64795;SDS011;51229;51.980;6.722;2023-03-23T01:39:55;6.40;;;3.40;;
64795;SDS011;51229;51.980;6.722;2023-03-23T01:42:26;6.57;;;3.28;;
64795;SDS011;51229;51.980;6.722;2023-03-23T01:45:20;4.82;;;2.90;;
64795;SDS011;51229;51.980;6.722;2023-03-23T01:48:01;5.90;;;3.00;;
64795;SDS011;51229;51.980;6.722;2023-03-23T01:50:31;8.10;;;3.60;;
64795;SDS011;51229;51.980;6.722;2023-03-23T01:53:02;4.82;;;2.85;;
64795;SDS011;51229;51.980;6.722;2023-03-23T01:55:34;6.88;;;3.28;;
64795;SDS011;51229;51.980;6.722;2023-03-23T01:58:03;6.45;;;3.40;;
64795;SDS011;51229;51.980;6.722;2023-03-23T02:00:30;7.55;;;3.20;;
64795;SDS011;51229;51.980;6.722;2023-03-23T02:02:56;6.38;;;3.70;;
64795;SDS011;51229;51.980;6.722;2023-03-23T02:05:24;7.47;;;3.83;;
64795;SDS011;51229;51.980;6.722;2023-03-23T02:07:58;5.10;;;3.30;;
64795;SDS011;51229;51.980;6.722;2023-03-23T02:10:30;8.48;;;3.70;;
64795;SDS011;51229;51.980;6.722;2023-03-23T02:12:58;5.97;;;3.50;;
64795;SDS011;51229;51.980;6.722;2023-03-23T02:15:26;8.18;;;4.28;;
64795;SDS011;51229;51.980;6.722;2023-03-23T02:18:00;8.02;;;3.50;;
64795;SDS011;51229;51.980;6.722;2023-03-23T02:23:52;7.40;;;4.45;;
64795;SDS011;51229;51.980;6.722;2023-03-23T02:32:04;7.32;;;4.28;;
64795;SDS011;51229;51.980;6.722;2023-03-23T02:34:41;6.32;;;4.07;;
64795;SDS011;51229;51.980;6.722;2023-03-23T02:37:16;6.65;;;4.07;;
64795;SDS011;51229;51.980;6.722;2023-03-23T02:40:07;8.63;;;4.07;;
64795;SDS011;51229;51.980;6.722;2023-03-23T02:42:38;6.57;;;4.07;;
64795;SDS011;51229;51.980;6.722;2023-03-23T02:45:08;7.00;;;3.65;;
64795;SDS011;51229;51.980;6.722;2023-03-23T02:47:35;7.18;;;4.18;;
64795;SDS011;51229;51.980;6.722;2023-03-23T02:50:04;6.72;;;4.22;;
64795;SDS011;51229;51.980;6.722;2023-03-23T02:52:33;9.32;;;4.45;;
64795;SDS011;51229;51.980;6.722;2023-03-23T02:55:01;8.52;;;3.80;;
64795;SDS011;51229;51.980;6.722;2023-03-23T02:57:28;7.30;;;4.22;;
64795;SDS011;51229;51.980;6.722;2023-03-23T02:59:57;6.82;;;3.95;;
64795;SDS011;51229;51.980;6.722;2023-03-23T03:02:32;7.25;;;4.10;;
64795;SDS011;51229;51.980;6.722;2023-03-23T03:05:03;7.28;;;4.45;;
64795;SDS011;51229;51.980;6.722;2023-03-23T03:07:56;7.10;;;4.20;;
64795;SDS011;51229;51.980;6.722;2023-03-23T03:11:12;7.80;;;4.13;;
64795;SDS011;51229;51.980;6.722;2023-03-23T03:13:28;9.63;;;4.40;;
64795;SDS011;51229;51.980;6.722;2023-03-23T03:18:32;8.57;;;4.88;;
64795;SDS011;51229;51.980;6.722;2023-03-23T03:21:05;7.15;;;4.20;;
64795;SDS011;51229;51.980;6.722;2023-03-23T03:23:34;7.28;;;4.13;;
64795;SDS011;51229;51.980;6.722;2023-03-23T03:26:03;6.68;;;3.92;;
64795;SDS011;51229;51.980;6.722;2023-03-23T03:28:40;5.38;;;3.38;;
64795;SDS011;51229;51.980;6.722;2023-03-23T03:31:06;6.05;;;3.85;;
64795;SDS011;51229;51.980;6.722;2023-03-23T03:33:34;6.75;;;4.15;;
64795;SDS011;51229;51.980;6.722;2023-03-23T03:36:01;8.23;;;3.78;;
64795;SDS011;51229;51.980;6.722;2023-03-23T03:38:40;6.82;;;4.32;;
64795;SDS011;51229;51.980;6.722;2023-03-23T03:41:07;8.23;;;4.03;;
64795;SDS011;51229;51.980;6.722;2023-03-23T03:43:33;6.60;;;4.05;;
64795;SDS011;51229;51.980;6.722;2023-03-23T03:46:00;7.57;;;4.40;;
64795;SDS011;51229;51.980;6.722;2023-03-23T03:48:26;6.13;;;3.80;;
64795;SDS011;51229;51.980;6.722;2023-03-23T03:50:52;8.38;;;4.07;;
64795;SDS011;51229;51.980;6.722;2023-03-23T03:53:17;7.97;;;4.60;;
64795;SDS011;51229;51.980;6.722;2023-03-23T03:55:44;8.45;;;4.15;;
64795;SDS011;51229;51.980;6.722;2023-03-23T03:58:14;7.57;;;4.20;;
64795;SDS011;51229;51.980;6.722;2023-03-23T04:01:06;5.93;;;3.70;;
64795;SDS011;51229;51.980;6.722;2023-03-23T04:03:36;6.38;;;4.07;;
64795;SDS011;51229;51.980;6.722;2023-03-23T04:06:11;7.93;;;4.07;;
64795;SDS011;51229;51.980;6.722;2023-03-23T04:08:40;5.97;;;4.07;;
64795;SDS011;51229;51.980;6.722;2023-03-23T04:11:10;8.25;;;4.47;;
64795;SDS011;51229;51.980;6.722;2023-03-23T04:13:38;5.32;;;3.50;;
64795;SDS011;51229;51.980;6.722;2023-03-23T04:16:24;6.70;;;4.10;;
64795;SDS011;51229;51.980;6.722;2023-03-23T04:18:52;6.35;;;3.90;;
64795;SDS011;51229;51.980;6.722;2023-03-23T04:21:21;7.15;;;4.68;;
64795;SDS011;51229;51.980;6.722;2023-03-23T04:23:48;7.18;;;3.88;;
64795;SDS011;51229;51.980;6.722;2023-03-23T04:26:14;5.95;;;3.58;;
64795;SDS011;51229;51.980;6.722;2023-03-23T04:28:43;8.70;;;4.35;;
64795;SDS011;51229;51.980;6.722;2023-03-23T04:31:27;6.10;;;4.35;;
64795;SDS011;51229;51.980;6.722;2023-03-23T04:34:03;6.50;;;3.45;;
64795;SDS011;51229;51.980;6.722;2023-03-23T04:36:35;7.03;;;3.50;;
64795;SDS011;51229;51.980;6.722;2023-03-23T04:39:09;6.93;;;3.17;;
64795;SDS011;51229;51.980;6.722;2023-03-23T04:41:36;6.05;;;3.50;;
64795;SDS011;51229;51.980;6.722;2023-03-23T04:44:22;6.57;;;4.00;;
64795;SDS011;51229;51.980;6.722;2023-03-23T04:46:56;6.45;;;3.17;;
64795;SDS011;51229;51.980;6.722;2023-03-23T04:49:23;7.00;;;4.55;;
64795;SDS011;51229;51.980;6.722;2023-03-23T04:51:56;5.95;;;3.08;;
64795;SDS011;51229;51.980;6.722;2023-03-23T04:54:54;6.07;;;3.63;;
64795;SDS011;51229;51.980;6.722;2023-03-23T04:57:21;5.78;;;3.58;;
64795;SDS011;51229;51.980;6.722;2023-03-23T05:00:08;6.60;;;3.92;;
64795;SDS011;51229;51.980;6.722;2023-03-23T05:02:40;6.28;;;3.38;;
64795;SDS011;51229;51.980;6.722;2023-03-23T05:05:07;6.72;;;3.58;;
64795;SDS011;51229;51.980;6.722;2023-03-23T05:07:33;7.90;;;3.65;;
64795;SDS011;51229;51.980;6.722;2023-03-23T05:10:01;7.20;;;3.53;;
64795;SDS011;51229;51.980;6.722;2023-03-23T05:12:29;7.28;;;3.40;;
64795;SDS011;51229;51.980;6.722;2023-03-23T05:14:59;5.18;;;3.38;;
64795;SDS011;51229;51.980;6.722;2023-03-23T05:17:27;6.47;;;3.15;;
64795;SDS011;51229;51.980;6.722;2023-03-23T05:19:56;5.78;;;3.33;;
64795;SDS011;51229;51.980;6.722;2023-03-23T05:22:40;6.65;;;4.20;;
64795;SDS011;51229;51.980;6.722;2023-03-23T05:25:07;6.38;;;3.80;;
64795;SDS011;51229;51.980;6.722;2023-03-23T05:27:38;7.13;;;3.67;;
64795;SDS011;51229;51.980;6.722;2023-03-23T05:30:17;8.20;;;3.85;;
64795;SDS011;51229;51.980;6.722;2023-03-23T05:32:43;6.55;;;3.13;;
64795;SDS011;51229;51.980;6.722;2023-03-23T05:35:35;7.40;;;3.25;;
64795;SDS011;51229;51.980;6.722;2023-03-23T05:38:02;6.50;;;3.65;;
64795;SDS011;51229;51.980;6.722;2023-03-23T05:40:30;5.60;;;3.10;;
64795;SDS011;51229;51.980;6.722;2023-03-23T05:43:05;7.25;;;3.33;;
64795;SDS011;51229;51.980;6.722;2023-03-23T05:45:41;6.53;;;2.97;;
64795;SDS011;51229;51.980;6.722;2023-03-23T05:48:07;5.85;;;3.10;;
64795;SDS011;51229;51.980;6.722;2023-03-23T05:50:34;6.13;;;3.45;;
64795;SDS011;51229;51.980;6.722;2023-03-23T05:53:00;5.78;;;3.20;;
64795;SDS011;51229;51.980;6.722;2023-03-23T05:55:26;6.57;;;2.95;;
64795;SDS011;51229;51.980;6.722;2023-03-23T05:58:02;6.70;;;3.15;;
64795;SDS011;51229;51.980;6.722;2023-03-23T06:00:32;7.38;;;2.80;;
64795;SDS011;51229;51.980;6.722;2023-03-23T06:03:08;8.10;;;3.20;;
64795;SDS011;51229;51.980;6.722;2023-03-23T06:05:50;7.22;;;3.03;;
64795;SDS011;51229;51.980;6.722;2023-03-23T06:08:26;5.90;;;2.90;;
64795;SDS011;51229;51.980;6.722;2023-03-23T06:10:54;6.72;;;2.88;;
64795;SDS011;51229;51.980;6.722;2023-03-23T06:13:20;6.65;;;3.55;;
64795;SDS011;51229;51.980;6.722;2023-03-23T06:15:48;5.57;;;3.33;;
64795;SDS011;51229;51.980;6.722;2023-03-23T06:18:29;7.78;;;3.30;;
64795;SDS011;51229;51.980;6.722;2023-03-23T06:21:04;7.57;;;2.75;;
64795;SDS011;51229;51.980;6.722;2023-03-23T06:23:51;7.53;;;3.13;;
64795;SDS011;51229;51.980;6.722;2023-03-23T06:26:19;5.28;;;3.22;;
64795;SDS011;51229;51.980;6.722;2023-03-23T06:28:51;5.82;;;3.30;;
64795;SDS011;51229;51.980;6.722;2023-03-23T06:31:17;6.40;;;2.92;;
64795;SDS011;51229;51.980;6.722;2023-03-23T06:33:46;5.70;;;2.90;;
64795;SDS011;51229;51.980;6.722;2023-03-23T06:36:44;6.20;;;3.28;;
64795;SDS011;51229;51.980;6.722;2023-03-23T06:39:17;6.22;;;3.25;;
64795;SDS011;51229;51.980;6.722;2023-03-23T06:41:56;7.13;;;3.35;;
64795;SDS011;51229;51.980;6.722;2023-03-23T06:44:24;6.43;;;3.35;;
64795;SDS011;51229;51.980;6.722;2023-03-23T06:46:49;5.22;;;2.90;;
64795;SDS011;51229;51.980;6.722;2023-03-23T06:49:36;5.78;;;3.00;;
64795;SDS011;51229;51.980;6.722;2023-03-23T06:52:12;6.88;;;2.72;;
64795;SDS011;51229;51.980;6.722;2023-03-23T06:54:38;7.05;;;3.10;;
64795;SDS011;51229;51.980;6.722;2023-03-23T06:57:05;8.07;;;3.30;;
64795;SDS011;51229;51.980;6.722;2023-03-23T06:59:31;6.65;;;2.90;;
64795;SDS011;51229;51.980;6.722;2023-03-23T07:01:58;4.82;;;3.05;;
64795;SDS011;51229;51.980;6.722;2023-03-23T07:04:24;7.40;;;2.97;;
64795;SDS011;51229;51.980;6.722;2023-03-23T07:06:59;6.57;;;3.00;;
64795;SDS011;51229;51.980;6.722;2023-03-23T07:09:25;6.07;;;2.88;;
64795;SDS011;51229;51.980;6.722;2023-03-23T07:11:51;5.32;;;2.97;;
64795;SDS011;51229;51.980;6.722;2023-03-23T07:14:27;5.18;;;2.60;;
64795;SDS011;51229;51.980;6.722;2023-03-23T07:16:53;6.15;;;2.83;;
64795;SDS011;51229;51.980;6.722;2023-03-23T07:19:19;6.68;;;2.95;;
64795;SDS011;51229;51.980;6.722;2023-03-23T07:21:45;6.10;;;3.03;;
64795;SDS011;51229;51.980;6.722;2023-03-23T07:24:12;9.95;;;2.78;;
64795;SDS011;51229;51.980;6.722;2023-03-23T07:26:59;6.47;;;2.80;;
64795;SDS011;51229;51.980;6.722;2023-03-23T07:29:26;5.93;;;2.40;;
64795;SDS011;51229;51.980;6.722;2023-03-23T07:32:02;5.40;;;1.98;;
64795;SDS011;51229;51.980;6.722;2023-03-23T07:34:29;8.00;;;2.75;;
64795;SDS011;51229;51.980;6.722;2023-03-23T07:37:03;5.75;;;2.30;;
64795;SDS011;51229;51.980;6.722;2023-03-23T07:39:32;5.78;;;2.92;;
64795;SDS011;51229;51.980;6.722;2023-03-23T07:41:59;7.80;;;2.65;;
64795;SDS011;51229;51.980;6.722;2023-03-23T07:44:48;7.47;;;2.75;;
64795;SDS011;51229;51.980;6.722;2023-03-23T07:47:15;8.30;;;2.60;;
64795;SDS011;51229;51.980;6.722;2023-03-23T07:49:45;11.27;;;2.92;;
64795;SDS011;51229;51.980;6.722;2023-03-23T07:52:16;5.95;;;2.55;;
64795;SDS011;51229;51.980;6.722;2023-03-23T07:54:43;19.48;;;3.08;;
64795;SDS011;51229;51.980;6.722;2023-03-23T07:57:34;7.88;;;2.63;;
64795;SDS011;51229;51.980;6.722;2023-03-23T08:00:02;7.60;;;2.10;;
64795;SDS011;51229;51.980;6.722;2023-03-23T08:02:41;8.88;;;2.67;;
64795;SDS011;51229;51.980;6.722;2023-03-23T08:05:30;10.88;;;4.20;;
64795;SDS011;51229;51.980;6.722;2023-03-23T08:08:03;8.35;;;3.30;;
64795;SDS011;51229;51.980;6.722;2023-03-23T08:10:48;7.47;;;2.58;;
64795;SDS011;51229;51.980;6.722;2023-03-23T08:13:41;9.00;;;3.05;;
64795;SDS011;51229;51.980;6.722;2023-03-23T08:16:27;7.88;;;2.72;;
64795;SDS011;51229;51.980;6.722;2023-03-23T08:19:08;11.57;;;3.30;;
64795;SDS011;51229;51.980;6.722;2023-03-23T08:21:56;6.28;;;3.00;;
64795;SDS011;51229;51.980;6.722;2023-03-23T08:24:39;11.77;;;3.30;;
64795;SDS011;51229;51.980;6.722;2023-03-23T08:27:28;8.10;;;2.70;;
64795;SDS011;51229;51.980;6.722;2023-03-23T08:30:14;7.32;;;2.70;;
64795;SDS011;51229;51.980;6.722;2023-03-23T08:33:00;8.77;;;3.10;;
64795;SDS011;51229;51.980;6.722;2023-03-23T08:35:44;6.43;;;2.83;;
64795;SDS011;51229;51.980;6.722;2023-03-23T08:38:29;7.00;;;3.00;;
64795;SDS011;51229;51.980;6.722;2023-03-23T08:41:14;5.72;;;2.97;;
64795;SDS011;51229;51.980;6.722;2023-03-23T08:44:13;6.57;;;2.60;;
64795;SDS011;51229;51.980;6.722;2023-03-23T08:47:11;8.63;;;2.55;;
64795;SDS011;51229;51.980;6.722;2023-03-23T08:49:57;9.35;;;3.28;;
64795;SDS011;51229;51.980;6.722;2023-03-23T08:52:50;9.40;;;3.00;;
64795;SDS011;51229;51.980;6.722;2023-03-23T08:55:36;9.07;;;3.88;;
64795;SDS011;51229;51.980;6.722;2023-03-23T09:01:04;7.40;;;2.50;;
64795;SDS011;51229;51.980;6.722;2023-03-23T09:03:59;5.38;;;2.28;;
64795;SDS011;51229;51.980;6.722;2023-03-23T09:06:43;5.45;;;2.38;;
64795;SDS011;51229;51.980;6.722;2023-03-23T09:09:11;6.25;;;2.53;;
64795;SDS011;51229;51.980;6.722;2023-03-23T09:11:37;6.25;;;2.35;;
64795;SDS011;51229;51.980;6.722;2023-03-23T09:14:04;4.65;;;1.85;;
64795;SDS011;51229;51.980;6.722;2023-03-23T09:16:32;5.25;;;2.00;;
64795;SDS011;51229;51.980;6.722;2023-03-23T09:18:59;6.25;;;2.03;;
64795;SDS011;51229;51.980;6.722;2023-03-23T09:21:25;4.97;;;2.00;;
64795;SDS011;51229;51.980;6.722;2023-03-23T09:23:52;5.20;;;1.98;;
64795;SDS011;51229;51.980;6.722;2023-03-23T09:26:18;3.50;;;1.83;;
64795;SDS011;51229;51.980;6.722;2023-03-23T09:28:44;6.15;;;2.38;;
64795;SDS011;51229;51.980;6.722;2023-03-23T09:31:11;4.95;;;2.38;;
64795;SDS011;51229;51.980;6.722;2023-03-23T09:33:37;5.13;;;2.10;;
64795;SDS011;51229;51.980;6.722;2023-03-23T09:36:04;5.18;;;2.05;;
64795;SDS011;51229;51.980;6.722;2023-03-23T09:38:31;3.60;;;1.70;;
64795;SDS011;51229;51.980;6.722;2023-03-23T09:41:12;4.15;;;1.40;;
64795;SDS011;51229;51.980;6.722;2023-03-23T09:46:28;3.58;;;1.10;;
64795;SDS011;51229;51.980;6.722;2023-03-23T09:49:17;3.00;;;1.13;;
64795;SDS011;51229;51.980;6.722;2023-03-23T09:54:23;2.05;;;1.00;;
64795;SDS011;51229;51.980;6.722;2023-03-23T09:56:59;3.53;;;1.38;;
64795;SDS011;51229;51.980;6.722;2023-03-23T09:59:35;4.72;;;1.58;;
64795;SDS011;51229;51.980;6.722;2023-03-23T10:07:50;2.28;;;1.17;;
64795;SDS011;51229;51.980;6.722;2023-03-23T10:10:16;3.15;;;1.25;;
64795;SDS011;51229;51.980;6.722;2023-03-23T10:12:51;3.17;;;1.40;;
64795;SDS011;51229;51.980;6.722;2023-03-23T10:15:41;2.20;;;0.98;;
64795;SDS011;51229;51.980;6.722;2023-03-23T10:18:24;3.30;;;1.13;;
64795;SDS011;51229;51.980;6.722;2023-03-23T10:21:01;3.28;;;1.13;;
64795;SDS011;51229;51.980;6.722;2023-03-23T10:23:51;5.28;;;1.33;;
64795;SDS011;51229;51.980;6.722;2023-03-23T10:29:08;4.15;;;1.40;;
64795;SDS011;51229;51.980;6.722;2023-03-23T10:32:34;3.55;;;1.35;;
64795;SDS011;51229;51.980;6.722;2023-03-23T10:34:49;2.38;;;1.10;;
64795;SDS011;51229;51.980;6.722;2023-03-23T10:37:24;3.58;;;1.20;;
64795;SDS011;51229;51.980;6.722;2023-03-23T10:42:33;4.57;;;1.30;;
64795;SDS011;51229;51.980;6.722;2023-03-23T10:45:10;2.38;;;0.90;;
64795;SDS011;51229;51.980;6.722;2023-03-23T10:47:41;2.35;;;1.00;;
64795;SDS011;51229;51.980;6.722;2023-03-23T10:50:14;3.70;;;1.20;;
64795;SDS011;51229;51.980;6.722;2023-03-23T10:52:43;2.58;;;1.05;;
64795;SDS011;51229;51.980;6.722;2023-03-23T10:55:11;4.00;;;0.95;;
64795;SDS011;51229;51.980;6.722;2023-03-23T10:57:40;5.05;;;1.17;;
64795;SDS011;51229;51.980;6.722;2023-03-23T11:00:23;4.10;;;1.00;;
64795;SDS011;51229;51.980;6.722;2023-03-23T11:03:03;4.72;;;0.90;;
64795;SDS011;51229;51.980;6.722;2023-03-23T11:08:02;3.80;;;1.00;;
64795;SDS011;51229;51.980;6.722;2023-03-23T11:10:36;3.55;;;1.00;;
64795;SDS011;51229;51.980;6.722;2023-03-23T11:13:03;2.50;;;0.98;;
64795;SDS011;51229;51.980;6.722;2023-03-23T11:15:35;5.25;;;1.13;;
64795;SDS011;51229;51.980;6.722;2023-03-23T11:18:18;3.08;;;1.23;;
64795;SDS011;51229;51.980;6.722;2023-03-23T11:20:49;2.78;;;1.15;;
64795;SDS011;51229;51.980;6.722;2023-03-23T11:23:36;3.03;;;1.20;;
64795;SDS011;51229;51.980;6.722;2023-03-23T11:31:34;5.47;;;1.08;;
64795;SDS011;51229;51.980;6.722;2023-03-23T11:36:42;3.60;;;1.38;;
64795;SDS011;51229;51.980;6.722;2023-03-23T11:39:29;3.65;;;1.20;;
64795;SDS011;51229;51.980;6.722;2023-03-23T11:41:58;3.85;;;1.30;;
64795;SDS011;51229;51.980;6.722;2023-03-23T11:44:31;6.18;;;1.30;;
64795;SDS011;51229;51.980;6.722;2023-03-23T11:47:01;2.83;;;1.15;;
64795;SDS011;51229;51.980;6.722;2023-03-23T11:58:15;3.85;;;1.30;;
64795;SDS011;51229;51.980;6.722;2023-03-23T12:01:04;4.90;;;1.42;;
64795;SDS011;51229;51.980;6.722;2023-03-23T12:03:42;4.57;;;1.67;;
64795;SDS011;51229;51.980;6.722;2023-03-23T12:09:39;5.43;;;1.35;;
64795;SDS011;51229;51.980;6.722;2023-03-23T12:12:29;4.60;;;1.63;;
64795;SDS011;51229;51.980;6.722;2023-03-23T12:15:21;5.13;;;1.60;;
64795;SDS011;51229;51.980;6.722;2023-03-23T12:20:52;4.78;;;1.40;;
64795;SDS011;51229;51.980;6.722;2023-03-23T12:28:39;4.85;;;1.45;;
64795;SDS011;51229;51.980;6.722;2023-03-23T12:31:37;5.65;;;1.33;;
64795;SDS011;51229;51.980;6.722;2023-03-23T12:34:26;4.53;;;1.50;;
64795;SDS011;51229;51.980;6.722;2023-03-23T12:48:24;5.07;;;1.58;;
64795;SDS011;51229;51.980;6.722;2023-03-23T12:53:41;4.40;;;1.38;;
64795;SDS011;51229;51.980;6.722;2023-03-23T12:56:28;4.22;;;1.88;;
64795;SDS011;51229;51.980;6.722;2023-03-23T12:59:06;6.07;;;2.40;;
64795;SDS011;51229;51.980;6.722;2023-03-23T13:01:54;5.03;;;2.03;;
64795;SDS011;51229;51.980;6.722;2023-03-23T13:04:27;6.15;;;1.73;;
64795;SDS011;51229;51.980;6.722;2023-03-23T13:06:59;4.97;;;1.58;;
64795;SDS011;51229;51.980;6.722;2023-03-23T13:12:29;5.00;;;1.70;;
64795;SDS011;51229;51.980;6.722;2023-03-23T13:17:36;5.15;;;1.77;;
64795;SDS011;51229;51.980;6.722;2023-03-23T13:28:14;5.15;;;1.70;;
64795;SDS011;51229;51.980;6.722;2023-03-23T13:31:11;4.60;;;1.50;;
64795;SDS011;51229;51.980;6.722;2023-03-23T13:33:43;5.20;;;2.25;;
64795;SDS011;51229;51.980;6.722;2023-03-23T13:36:14;5.57;;;1.80;;
64795;SDS011;51229;51.980;6.722;2023-03-23T13:38:49;5.03;;;1.70;;
64795;SDS011;51229;51.980;6.722;2023-03-23T13:41:16;3.17;;;1.60;;
64795;SDS011;51229;51.980;6.722;2023-03-23T13:43:45;5.30;;;2.08;;
64795;SDS011;51229;51.980;6.722;2023-03-23T13:48:46;4.50;;;1.50;;
64795;SDS011;51229;51.980;6.722;2023-03-23T13:54:03;5.10;;;1.95;;
64795;SDS011;51229;51.980;6.722;2023-03-23T13:56:43;4.72;;;1.90;;
64795;SDS011;51229;51.980;6.722;2023-03-23T14:01:56;5.50;;;1.70;;
64795;SDS011;51229;51.980;6.722;2023-03-23T14:04:42;5.03;;;2.10;;
64795;SDS011;51229;51.980;6.722;2023-03-23T14:07:11;3.88;;;1.60;;
64795;SDS011;51229;51.980;6.722;2023-03-23T14:09:41;7.07;;;1.80;;
64795;SDS011;51229;51.980;6.722;2023-03-23T14:12:25;3.97;;;1.80;;
64795;SDS011;51229;51.980;6.722;2023-03-23T14:14:57;5.32;;;1.95;;
64795;SDS011;51229;51.980;6.722;2023-03-23T14:17:29;5.93;;;2.13;;
64795;SDS011;51229;51.980;6.722;2023-03-23T14:19:58;5.03;;;1.90;;
64795;SDS011;51229;51.980;6.722;2023-03-23T14:22:37;4.75;;;1.83;;
64795;SDS011;51229;51.980;6.722;2023-03-23T14:25:12;4.93;;;1.98;;
64795;SDS011;51229;51.980;6.722;2023-03-23T14:27:42;8.45;;;2.67;;
64795;SDS011;51229;51.980;6.722;2023-03-23T14:30:15;5.25;;;2.05;;
64795;SDS011;51229;51.980;6.722;2023-03-23T14:32:43;6.15;;;2.80;;
64795;SDS011;51229;51.980;6.722;2023-03-23T14:35:14;6.65;;;2.20;;
64795;SDS011;51229;51.980;6.722;2023-03-23T14:37:48;5.75;;;2.13;;
64795;SDS011;51229;51.980;6.722;2023-03-23T14:40:14;5.00;;;1.90;;
64795;SDS011;51229;51.980;6.722;2023-03-23T14:42:41;6.50;;;2.47;;
64795;SDS011;51229;51.980;6.722;2023-03-23T14:45:10;6.15;;;2.00;;
64795;SDS011;51229;51.980;6.722;2023-03-23T14:47:40;5.72;;;2.13;;
64795;SDS011;51229;51.980;6.722;2023-03-23T14:52:50;4.63;;;2.10;;
64795;SDS011;51229;51.980;6.722;2023-03-23T14:55:19;4.72;;;1.70;;
64795;SDS011;51229;51.980;6.722;2023-03-23T14:57:47;6.88;;;2.30;;
64795;SDS011;51229;51.980;6.722;2023-03-23T15:00:27;6.20;;;2.35;;
64795;SDS011;51229;51.980;6.722;2023-03-23T15:02:57;3.88;;;1.60;;
64795;SDS011;51229;51.980;6.722;2023-03-23T15:05:27;6.93;;;2.15;;
64795;SDS011;51229;51.980;6.722;2023-03-23T15:07:59;6.85;;;2.15;;
64795;SDS011;51229;51.980;6.722;2023-03-23T15:10:28;8.98;;;2.75;;
64795;SDS011;51229;51.980;6.722;2023-03-23T15:12:54;7.13;;;2.25;;
64795;SDS011;51229;51.980;6.722;2023-03-23T15:15:25;8.73;;;2.60;;
64795;SDS011;51229;51.980;6.722;2023-03-23T15:17:59;7.93;;;2.45;;
64795;SDS011;51229;51.980;6.722;2023-03-23T15:20:28;8.50;;;2.40;;
64795;SDS011;51229;51.980;6.722;2023-03-23T15:22:56;6.75;;;2.20;;
64795;SDS011;51229;51.980;6.722;2023-03-23T15:25:31;6.22;;;1.67;;
64795;SDS011;51229;51.980;6.722;2023-03-23T15:33:02;3.00;;;0.98;;
64795;SDS011;51229;51.980;6.722;2023-03-23T15:35:32;4.35;;;1.35;;
64795;SDS011;51229;51.980;6.722;2023-03-23T15:38:03;4.30;;;1.55;;
64795;SDS011;51229;51.980;6.722;2023-03-23T15:40:35;2.87;;;1.20;;
64795;SDS011;51229;51.980;6.722;2023-03-23T15:43:07;4.10;;;1.38;;
64795;SDS011;51229;51.980;6.722;2023-03-23T15:45:50;3.20;;;1.33;;
64795;SDS011;51229;51.980;6.722;2023-03-23T15:48:18;3.63;;;1.20;;
64795;SDS011;51229;51.980;6.722;2023-03-23T15:50:44;3.40;;;1.38;;
64795;SDS011;51229;51.980;6.722;2023-03-23T15:53:19;3.80;;;1.50;;
64795;SDS011;51229;51.980;6.722;2023-03-23T15:55:51;2.97;;;1.25;;
64795;SDS011;51229;51.980;6.722;2023-03-23T15:58:17;4.18;;;1.50;;
64795;SDS011;51229;51.980;6.722;2023-03-23T16:00:42;4.15;;;1.90;;
64795;SDS011;51229;51.980;6.722;2023-03-23T16:03:16;4.50;;;2.13;;
64795;SDS011;51229;51.980;6.722;2023-03-23T16:05:45;7.03;;;2.15;;
64795;SDS011;51229;51.980;6.722;2023-03-23T16:08:11;5.03;;;1.95;;
64795;SDS011;51229;51.980;6.722;2023-03-23T16:10:37;4.90;;;1.70;;
64795;SDS011;51229;51.980;6.722;2023-03-23T16:13:02;5.65;;;2.35;;
64795;SDS011;51229;51.980;6.722;2023-03-23T16:15:29;5.03;;;1.83;;
64795;SDS011;51229;51.980;6.722;2023-03-23T16:17:55;4.38;;;1.90;;
64795;SDS011;51229;51.980;6.722;2023-03-23T16:20:22;9.18;;;2.40;;
64795;SDS011;51229;51.980;6.722;2023-03-23T16:22:48;4.15;;;1.80;;
64795;SDS011;51229;51.980;6.722;2023-03-23T16:25:15;5.20;;;1.90;;
64795;SDS011;51229;51.980;6.722;2023-03-23T16:27:42;4.70;;;2.20;;
64795;SDS011;51229;51.980;6.722;2023-03-23T16:30:15;5.85;;;2.10;;
64795;SDS011;51229;51.980;6.722;2023-03-23T16:32:42;6.03;;;2.00;;
64795;SDS011;51229;51.980;6.722;2023-03-23T16:35:09;5.53;;;2.30;;
64795;SDS011;51229;51.980;6.722;2023-03-23T16:37:35;5.43;;;1.92;;
64795;SDS011;51229;51.980;6.722;2023-03-23T16:40:01;4.57;;;2.00;;
64795;SDS011;51229;51.980;6.722;2023-03-23T16:42:28;5.10;;;1.75;;
64795;SDS011;51229;51.980;6.722;2023-03-23T16:44:53;5.35;;;2.00;;
64795;SDS011;51229;51.980;6.722;2023-03-23T16:47:20;4.65;;;1.73;;
64795;SDS011;51229;51.980;6.722;2023-03-23T16:49:49;5.43;;;2.00;;
64795;SDS011;51229;51.980;6.722;2023-03-23T16:52:15;3.60;;;1.80;;
64795;SDS011;51229;51.980;6.722;2023-03-23T16:54:42;3.90;;;2.05;;
64795;SDS011;51229;51.980;6.722;2023-03-23T16:57:07;5.10;;;1.80;;
64795;SDS011;51229;51.980;6.722;2023-03-23T16:59:33;4.68;;;1.67;;
64795;SDS011;51229;51.980;6.722;2023-03-23T17:01:59;3.40;;;1.65;;
64795;SDS011;51229;51.980;6.722;2023-03-23T17:04:28;5.38;;;1.95;;
64795;SDS011;51229;51.980;6.722;2023-03-23T17:06:54;5.93;;;1.83;;